King And Queen Court Hous, Virginia
Current Conditions -  °F | °C
As of 8:15 PM on Thursday 27 Nov 2014 (Local Time) from KXSA Reporting Station
Overcast Overcast  
Wind Chill: 39°   Ceiling: 6500
Heat Index: 39°   Visibility: 10mi
Dew Point: 29°   Wind: 3mph
Humidity: 67%   Direction: 300°WNW
Pressure: 30.16"   Gusts: NA
Location:  37.7018°N, 76.9162°W
Report Text: KXSA 280115Z AUTO 30003KT 10SM OVC065 04/M02 A3016 RMK AO2 T00401016
Loading
Personal Weather Stations






























Interactive Weather Map New forecast layout! Learn more

10-Day Weather Forecast

Advertisements
Track Severe Weather on mobile